Darwin International Airport
YPDN : now visible

Airfield :











YOU CAN JOIN US ON...

 
LOGIN :

Register | Disclaimer

   EN    FR    IT 

 









Legend :    VFR   Marginal VFR   IFR   Intensive IFR   Very Intensive IFR
Visi :
Ceiling :
>= 8 km
>= 3000ft
5 to 8 km
1000 to 3000 ft
1500m to 5 km
500 to 1000 ft
800 to 1500m
200 to 500 ft
< 800m
< 200 ft
Symbols :   Thunderstorms  Fog  Heavy snow  Heavy precipitations  Wind > 20 kt






- Airport Elevation : 103 ft
- IATA code : DRW


YPDN - Darwin International

CURRENT METAR :
  • 170200Z 31006KT 9999 SCT027 BKN360 32/25 Q1006

EXPIRED METARs :
  • 170130Z AUTO 31007KT 9999 // SCT023 SCT084 32/25 Q1006
  • 170100Z 29005KT 9999 FEW026 SCT140 BKN360 31/25 Q1006
  • 170030Z 29004KT 260V320 9999 FEW022 BKN140 BKN360 30/25 Q1006
  • 170000Z 31004KT 9999 FEW020 BKN140 BKN170 30/25 Q1006
  • 162330Z 31004KT 9999 FEW018 SCT088 BKN150 29/25 Q1006

TAF TAF YPDN
Valid from the 17 at 00:00 until the 18 at 06:00 UTC


162308Z 1700/1806 23005KT 9999 SCT020
FM170500 32009KT 9999 SCT030
FM171600 23005KT 9999 SCT020
FM180100 12008KT 9999 SCT040
PROB30
TEMPO 1708/1714 VRB30G50KT 1000 TSRA BKN010 SCT030CB
YBBB FIR / Oceania



MET'MAP, your aeronautical weather chart ! - Copyright ORBIFLY December 2007 - Disclaimer

ORBIFLY MET'MAP TEAM :

Programming & Development : Alexandra Zaïnal
Concept & original design : Baudouin d'Aumeries
Assistance for programming : Marc-Olivier Méhu
Technical & hardware support : Manuel Goepfert

Contact : metmap@orbifly.com




SOURCES & CREDITS :

   NOAA       Earth
Advisory